sensor_id;sensor_type;location;lat;lon;timestamp;P1;durP1;ratioP1;P2;durP2;ratioP2
15258;SDS011;34462;51.368;12.364;2022-10-04T00:02:22;4.60;;;2.30;;
15258;SDS011;34462;51.368;12.364;2022-10-04T00:04:58;6.87;;;2.73;;
15258;SDS011;34462;51.368;12.364;2022-10-04T00:07:32;4.40;;;2.10;;
15258;SDS011;34462;51.368;12.364;2022-10-04T00:10:06;4.87;;;2.40;;
15258;SDS011;34462;51.368;12.364;2022-10-04T00:12:46;9.37;;;3.20;;
15258;SDS011;34462;51.368;12.364;2022-10-04T00:15:19;4.13;;;2.10;;
15258;SDS011;34462;51.368;12.364;2022-10-04T00:18:04;4.73;;;2.40;;
15258;SDS011;34462;51.368;12.364;2022-10-04T00:23:45;4.60;;;2.20;;
15258;SDS011;34462;51.368;12.364;2022-10-04T00:29:35;6.20;;;2.53;;
15258;SDS011;34462;51.368;12.364;2022-10-04T00:32:23;7.47;;;2.67;;
15258;SDS011;34462;51.368;12.364;2022-10-04T00:34:56;4.33;;;1.90;;
15258;SDS011;34462;51.368;12.364;2022-10-04T00:37:31;4.57;;;2.57;;
15258;SDS011;34462;51.368;12.364;2022-10-04T00:40:23;6.37;;;2.53;;
15258;SDS011;34462;51.368;12.364;2022-10-04T00:42:56;6.20;;;2.37;;
15258;SDS011;34462;51.368;12.364;2022-10-04T00:45:28;3.60;;;2.00;;
15258;SDS011;34462;51.368;12.364;2022-10-04T00:48:14;4.53;;;2.10;;
15258;SDS011;34462;51.368;12.364;2022-10-04T00:50:59;4.87;;;2.00;;
15258;SDS011;34462;51.368;12.364;2022-10-04T00:53:49;5.23;;;2.20;;
15258;SDS011;34462;51.368;12.364;2022-10-04T00:56:29;3.73;;;2.10;;
15258;SDS011;34462;51.368;12.364;2022-10-04T00:59:11;5.67;;;2.87;;
15258;SDS011;34462;51.368;12.364;2022-10-04T01:02:01;3.80;;;2.23;;
15258;SDS011;34462;51.368;12.364;2022-10-04T01:04:38;2.97;;;2.00;;
15258;SDS011;34462;51.368;12.364;2022-10-04T01:07:15;5.63;;;2.53;;
15258;SDS011;34462;51.368;12.364;2022-10-04T01:09:51;6.40;;;2.60;;
15258;SDS011;34462;51.368;12.364;2022-10-04T01:12:31;9.67;;;2.93;;
15258;SDS011;34462;51.368;12.364;2022-10-04T01:15:11;6.03;;;2.40;;
15258;SDS011;34462;51.368;12.364;2022-10-04T01:18:04;3.47;;;2.07;;
15258;SDS011;34462;51.368;12.364;2022-10-04T01:20:36;4.20;;;2.20;;
15258;SDS011;34462;51.368;12.364;2022-10-04T01:29:09;3.63;;;2.40;;
15258;SDS011;34462;51.368;12.364;2022-10-04T01:31:42;5.13;;;2.30;;
15258;SDS011;34462;51.368;12.364;2022-10-04T01:34:14;6.60;;;2.40;;
15258;SDS011;34462;51.368;12.364;2022-10-04T01:36:45;4.37;;;2.17;;
15258;SDS011;34462;51.368;12.364;2022-10-04T01:39:17;3.83;;;1.97;;
15258;SDS011;34462;51.368;12.364;2022-10-04T01:41:51;4.23;;;2.27;;
15258;SDS011;34462;51.368;12.364;2022-10-04T01:44:26;2.50;;;1.70;;
15258;SDS011;34462;51.368;12.364;2022-10-04T01:47:02;4.50;;;1.87;;
15258;SDS011;34462;51.368;12.364;2022-10-04T01:49:38;3.47;;;1.73;;
15258;SDS011;34462;51.368;12.364;2022-10-04T01:52:13;3.40;;;2.00;;
15258;SDS011;34462;51.368;12.364;2022-10-04T01:54:48;5.13;;;2.00;;
15258;SDS011;34462;51.368;12.364;2022-10-04T01:57:29;5.70;;;2.03;;
15258;SDS011;34462;51.368;12.364;2022-10-04T02:00:04;2.43;;;1.63;;
15258;SDS011;34462;51.368;12.364;2022-10-04T02:02:36;6.13;;;2.30;;
15258;SDS011;34462;51.368;12.364;2022-10-04T02:05:10;3.90;;;2.03;;
15258;SDS011;34462;51.368;12.364;2022-10-04T02:07:43;4.50;;;1.90;;
15258;SDS011;34462;51.368;12.364;2022-10-04T02:10:15;4.10;;;2.17;;
15258;SDS011;34462;51.368;12.364;2022-10-04T02:12:48;6.43;;;1.80;;
15258;SDS011;34462;51.368;12.364;2022-10-04T02:15:20;4.70;;;1.87;;
15258;SDS011;34462;51.368;12.364;2022-10-04T02:17:51;5.67;;;2.10;;
15258;SDS011;34462;51.368;12.364;2022-10-04T02:20:24;3.43;;;1.90;;
15258;SDS011;34462;51.368;12.364;2022-10-04T02:22:54;4.17;;;2.00;;
15258;SDS011;34462;51.368;12.364;2022-10-04T02:25:28;7.03;;;2.40;;
15258;SDS011;34462;51.368;12.364;2022-10-04T02:27:59;5.83;;;1.90;;
15258;SDS011;34462;51.368;12.364;2022-10-04T02:30:28;3.73;;;1.80;;
15258;SDS011;34462;51.368;12.364;2022-10-04T02:33:02;5.00;;;1.97;;
15258;SDS011;34462;51.368;12.364;2022-10-04T02:35:31;5.53;;;1.97;;
15258;SDS011;34462;51.368;12.364;2022-10-04T02:38:05;4.27;;;2.00;;
15258;SDS011;34462;51.368;12.364;2022-10-04T02:40:45;6.07;;;2.20;;
15258;SDS011;34462;51.368;12.364;2022-10-04T02:43:23;5.50;;;2.60;;
15258;SDS011;34462;51.368;12.364;2022-10-04T02:46:01;9.03;;;2.60;;
15258;SDS011;34462;51.368;12.364;2022-10-04T02:48:38;6.23;;;2.87;;
15258;SDS011;34462;51.368;12.364;2022-10-04T02:51:15;5.20;;;2.73;;
15258;SDS011;34462;51.368;12.364;2022-10-04T02:53:53;6.93;;;3.07;;
15258;SDS011;34462;51.368;12.364;2022-10-04T02:56:29;4.87;;;3.30;;
15258;SDS011;34462;51.368;12.364;2022-10-04T02:59:00;4.87;;;3.23;;
15258;SDS011;34462;51.368;12.364;2022-10-04T03:01:40;8.13;;;3.77;;
15258;SDS011;34462;51.368;12.364;2022-10-04T03:04:16;6.50;;;3.63;;
15258;SDS011;34462;51.368;12.364;2022-10-04T03:06:48;6.30;;;3.30;;
15258;SDS011;34462;51.368;12.364;2022-10-04T03:09:19;7.00;;;3.30;;
15258;SDS011;34462;51.368;12.364;2022-10-04T03:11:54;7.53;;;3.60;;
15258;SDS011;34462;51.368;12.364;2022-10-04T03:14:25;8.53;;;4.20;;
15258;SDS011;34462;51.368;12.364;2022-10-04T03:16:55;8.00;;;3.60;;
15258;SDS011;34462;51.368;12.364;2022-10-04T03:19:29;8.57;;;3.50;;
15258;SDS011;34462;51.368;12.364;2022-10-04T03:22:01;6.17;;;3.57;;
15258;SDS011;34462;51.368;12.364;2022-10-04T03:24:35;11.10;;;4.07;;
15258;SDS011;34462;51.368;12.364;2022-10-04T03:27:13;7.33;;;3.50;;
15258;SDS011;34462;51.368;12.364;2022-10-04T03:29:47;10.23;;;4.10;;
15258;SDS011;34462;51.368;12.364;2022-10-04T03:32:20;6.77;;;4.50;;
15258;SDS011;34462;51.368;12.364;2022-10-04T03:34:51;10.10;;;4.83;;
15258;SDS011;34462;51.368;12.364;2022-10-04T03:37:23;8.37;;;3.90;;
15258;SDS011;34462;51.368;12.364;2022-10-04T03:39:55;5.60;;;3.70;;
15258;SDS011;34462;51.368;12.364;2022-10-04T03:42:25;5.97;;;3.73;;
15258;SDS011;34462;51.368;12.364;2022-10-04T03:45:00;7.67;;;4.23;;
15258;SDS011;34462;51.368;12.364;2022-10-04T03:47:34;7.07;;;4.33;;
15258;SDS011;34462;51.368;12.364;2022-10-04T03:50:13;6.87;;;4.30;;
15258;SDS011;34462;51.368;12.364;2022-10-04T03:52:49;5.30;;;3.90;;
15258;SDS011;34462;51.368;12.364;2022-10-04T03:55:20;8.40;;;4.50;;
15258;SDS011;34462;51.368;12.364;2022-10-04T03:57:58;7.50;;;4.63;;
15258;SDS011;34462;51.368;12.364;2022-10-04T04:00:28;6.97;;;4.80;;
15258;SDS011;34462;51.368;12.364;2022-10-04T04:02:58;5.50;;;4.07;;
15258;SDS011;34462;51.368;12.364;2022-10-04T04:05:34;7.97;;;4.20;;
15258;SDS011;34462;51.368;12.364;2022-10-04T04:08:10;6.47;;;4.13;;
15258;SDS011;34462;51.368;12.364;2022-10-04T04:10:46;4.13;;;3.57;;
15258;SDS011;34462;51.368;12.364;2022-10-04T04:13:21;10.07;;;3.97;;
15258;SDS011;34462;51.368;12.364;2022-10-04T04:15:58;7.67;;;3.80;;
15258;SDS011;34462;51.368;12.364;2022-10-04T04:18:29;6.53;;;3.60;;
15258;SDS011;34462;51.368;12.364;2022-10-04T04:21:01;6.73;;;3.77;;
15258;SDS011;34462;51.368;12.364;2022-10-04T04:23:34;7.40;;;3.33;;
15258;SDS011;34462;51.368;12.364;2022-10-04T04:26:11;6.20;;;3.43;;
15258;SDS011;34462;51.368;12.364;2022-10-04T04:28:46;3.20;;;2.80;;
15258;SDS011;34462;51.368;12.364;2022-10-04T04:31:22;6.93;;;3.07;;
15258;SDS011;34462;51.368;12.364;2022-10-04T04:33:55;6.17;;;3.10;;
15258;SDS011;34462;51.368;12.364;2022-10-04T04:36:26;4.97;;;3.07;;
15258;SDS011;34462;51.368;12.364;2022-10-04T04:39:05;5.47;;;3.03;;
15258;SDS011;34462;51.368;12.364;2022-10-04T04:41:49;7.40;;;2.97;;
15258;SDS011;34462;51.368;12.364;2022-10-04T04:44:17;6.43;;;2.93;;
15258;SDS011;34462;51.368;12.364;2022-10-04T04:46:48;9.53;;;3.60;;
15258;SDS011;34462;51.368;12.364;2022-10-04T04:49:16;5.53;;;2.77;;
15258;SDS011;34462;51.368;12.364;2022-10-04T04:51:46;7.90;;;3.10;;
15258;SDS011;34462;51.368;12.364;2022-10-04T04:54:17;3.87;;;2.60;;
15258;SDS011;34462;51.368;12.364;2022-10-04T04:56:51;4.87;;;2.97;;
15258;SDS011;34462;51.368;12.364;2022-10-04T04:59:22;7.93;;;3.27;;
15258;SDS011;34462;51.368;12.364;2022-10-04T05:01:54;4.17;;;2.90;;
15258;SDS011;34462;51.368;12.364;2022-10-04T05:04:22;7.30;;;3.40;;
15258;SDS011;34462;51.368;12.364;2022-10-04T05:06:58;6.43;;;3.20;;
15258;SDS011;34462;51.368;12.364;2022-10-04T05:09:30;5.63;;;3.30;;
15258;SDS011;34462;51.368;12.364;2022-10-04T05:12:05;6.60;;;3.70;;
15258;SDS011;34462;51.368;12.364;2022-10-04T05:14:42;7.17;;;3.40;;
15258;SDS011;34462;51.368;12.364;2022-10-04T05:17:18;7.63;;;4.13;;
15258;SDS011;34462;51.368;12.364;2022-10-04T05:19:50;4.67;;;3.37;;
15258;SDS011;34462;51.368;12.364;2022-10-04T05:22:24;4.37;;;3.60;;
15258;SDS011;34462;51.368;12.364;2022-10-04T05:24:55;6.67;;;3.20;;
15258;SDS011;34462;51.368;12.364;2022-10-04T05:27:29;7.00;;;3.97;;
15258;SDS011;34462;51.368;12.364;2022-10-04T05:30:04;7.33;;;3.70;;
15258;SDS011;34462;51.368;12.364;2022-10-04T05:32:42;7.43;;;3.60;;
15258;SDS011;34462;51.368;12.364;2022-10-04T05:35:24;8.60;;;3.80;;
15258;SDS011;34462;51.368;12.364;2022-10-04T05:37:57;5.80;;;3.60;;
15258;SDS011;34462;51.368;12.364;2022-10-04T05:40:37;5.00;;;3.40;;
15258;SDS011;34462;51.368;12.364;2022-10-04T05:43:26;7.37;;;3.93;;
15258;SDS011;34462;51.368;12.364;2022-10-04T05:46:12;6.23;;;3.50;;
15258;SDS011;34462;51.368;12.364;2022-10-04T05:48:50;5.33;;;3.40;;
15258;SDS011;34462;51.368;12.364;2022-10-04T05:51:22;6.80;;;3.73;;
15258;SDS011;34462;51.368;12.364;2022-10-04T05:53:54;8.00;;;3.67;;
15258;SDS011;34462;51.368;12.364;2022-10-04T05:59:47;6.67;;;4.20;;
15258;SDS011;34462;51.368;12.364;2022-10-04T06:02:36;6.83;;;4.00;;
15258;SDS011;34462;51.368;12.364;2022-10-04T06:05:46;5.70;;;3.90;;
15258;SDS011;34462;51.368;12.364;2022-10-04T06:08:23;8.13;;;4.30;;
15258;SDS011;34462;51.368;12.364;2022-10-04T06:11:13;7.53;;;4.30;;
15258;SDS011;34462;51.368;12.364;2022-10-04T06:14:02;7.07;;;4.30;;
15258;SDS011;34462;51.368;12.364;2022-10-04T06:16:56;8.70;;;4.33;;
15258;SDS011;34462;51.368;12.364;2022-10-04T06:19:50;8.20;;;4.20;;
15258;SDS011;34462;51.368;12.364;2022-10-04T06:22:59;9.47;;;4.03;;
15258;SDS011;34462;51.368;12.364;2022-10-04T06:25:35;6.53;;;3.10;;
15258;SDS011;34462;51.368;12.364;2022-10-04T06:28:12;9.47;;;3.60;;
15258;SDS011;34462;51.368;12.364;2022-10-04T06:30:52;6.83;;;3.27;;
15258;SDS011;34462;51.368;12.364;2022-10-04T06:33:56;5.53;;;3.17;;
15258;SDS011;34462;51.368;12.364;2022-10-04T06:37:04;6.37;;;3.10;;
15258;SDS011;34462;51.368;12.364;2022-10-04T06:39:58;5.60;;;2.60;;
15258;SDS011;34462;51.368;12.364;2022-10-04T06:43:10;9.93;;;2.90;;
15258;SDS011;34462;51.368;12.364;2022-10-04T06:46:00;7.37;;;3.17;;
15258;SDS011;34462;51.368;12.364;2022-10-04T06:48:48;3.90;;;3.10;;
15258;SDS011;34462;51.368;12.364;2022-10-04T06:51:56;6.97;;;3.13;;
15258;SDS011;34462;51.368;12.364;2022-10-04T06:54:49;5.60;;;3.80;;
15258;SDS011;34462;51.368;12.364;2022-10-04T07:01:09;7.13;;;3.00;;
15258;SDS011;34462;51.368;12.364;2022-10-04T07:03:53;5.33;;;3.20;;
15258;SDS011;34462;51.368;12.364;2022-10-04T07:06:32;7.47;;;3.30;;
15258;SDS011;34462;51.368;12.364;2022-10-04T07:09:13;5.43;;;3.10;;
15258;SDS011;34462;51.368;12.364;2022-10-04T07:11:52;6.33;;;2.97;;
15258;SDS011;34462;51.368;12.364;2022-10-04T07:14:30;4.93;;;3.00;;
15258;SDS011;34462;51.368;12.364;2022-10-04T07:17:08;7.53;;;3.00;;
15258;SDS011;34462;51.368;12.364;2022-10-04T07:19:45;5.67;;;2.73;;
15258;SDS011;34462;51.368;12.364;2022-10-04T07:22:15;6.00;;;3.33;;
15258;SDS011;34462;51.368;12.364;2022-10-04T07:24:55;5.90;;;3.53;;
15258;SDS011;34462;51.368;12.364;2022-10-04T07:27:33;5.33;;;3.20;;
15258;SDS011;34462;51.368;12.364;2022-10-04T07:30:40;5.57;;;2.50;;
15258;SDS011;34462;51.368;12.364;2022-10-04T07:33:19;4.55;;;2.72;;
15258;SDS011;34462;51.368;12.364;2022-10-04T07:35:53;5.35;;;2.70;;
15258;SDS011;34462;51.368;12.364;2022-10-04T07:38:33;7.18;;;2.88;;
15258;SDS011;34462;51.368;12.364;2022-10-04T07:41:17;4.22;;;2.53;;
15258;SDS011;34462;51.368;12.364;2022-10-04T07:43:52;7.30;;;2.92;;
15258;SDS011;34462;51.368;12.364;2022-10-04T07:46:36;7.40;;;3.60;;
15258;SDS011;34462;51.368;12.364;2022-10-04T07:49:14;5.00;;;2.40;;
15258;SDS011;34462;51.368;12.364;2022-10-04T07:52:01;6.03;;;2.60;;
15258;SDS011;34462;51.368;12.364;2022-10-04T07:54:46;4.15;;;2.28;;
15258;SDS011;34462;51.368;12.364;2022-10-04T07:57:27;6.55;;;3.30;;
15258;SDS011;34462;51.368;12.364;2022-10-04T08:00:08;10.32;;;4.32;;
15258;SDS011;34462;51.368;12.364;2022-10-04T08:02:47;4.90;;;2.38;;
15258;SDS011;34462;51.368;12.364;2022-10-04T08:05:37;6.75;;;2.60;;
15258;SDS011;34462;51.368;12.364;2022-10-04T08:08:17;6.13;;;2.28;;
15258;SDS011;34462;51.368;12.364;2022-10-04T08:11:12;4.38;;;2.42;;
15258;SDS011;34462;51.368;12.364;2022-10-04T08:13:52;4.60;;;2.50;;
15258;SDS011;34462;51.368;12.364;2022-10-04T08:16:33;6.50;;;2.72;;
15258;SDS011;34462;51.368;12.364;2022-10-04T08:19:19;6.13;;;2.72;;
15258;SDS011;34462;51.368;12.364;2022-10-04T08:22:13;6.63;;;2.60;;
15258;SDS011;34462;51.368;12.364;2022-10-04T08:24:57;5.93;;;2.70;;
15258;SDS011;34462;51.368;12.364;2022-10-04T08:27:39;3.88;;;2.40;;
15258;SDS011;34462;51.368;12.364;2022-10-04T08:30:57;6.25;;;3.30;;
15258;SDS011;34462;51.368;12.364;2022-10-04T08:33:42;3.80;;;2.60;;
15258;SDS011;34462;51.368;12.364;2022-10-04T08:36:29;5.57;;;3.10;;
15258;SDS011;34462;51.368;12.364;2022-10-04T08:39:16;5.45;;;3.17;;
15258;SDS011;34462;51.368;12.364;2022-10-04T08:52:15;4.95;;;3.00;;
15258;SDS011;34462;51.368;12.364;2022-10-04T08:55:19;7.95;;;2.95;;
15258;SDS011;34462;51.368;12.364;2022-10-04T08:58:38;4.97;;;2.83;;
15258;SDS011;34462;51.368;12.364;2022-10-04T09:01:44;4.78;;;2.67;;
15258;SDS011;34462;51.368;12.364;2022-10-04T09:08:14;8.20;;;3.30;;
15258;SDS011;34462;51.368;12.364;2022-10-04T09:14:43;4.68;;;2.70;;
15258;SDS011;34462;51.368;12.364;2022-10-04T09:17:41;5.90;;;3.20;;
15258;SDS011;34462;51.368;12.364;2022-10-04T09:20:21;9.02;;;3.28;;
15258;SDS011;34462;51.368;12.364;2022-10-04T09:23:11;7.13;;;3.28;;
15258;SDS011;34462;51.368;12.364;2022-10-04T09:26:09;7.07;;;3.08;;
15258;SDS011;34462;51.368;12.364;2022-10-04T09:32:09;6.65;;;3.10;;
15258;SDS011;34462;51.368;12.364;2022-10-04T09:35:37;6.75;;;3.00;;
15258;SDS011;34462;51.368;12.364;2022-10-04T09:38:44;7.65;;;3.85;;
15258;SDS011;34462;51.368;12.364;2022-10-04T09:42:03;6.13;;;2.90;;
15258;SDS011;34462;51.368;12.364;2022-10-04T09:45:18;4.80;;;3.00;;
15258;SDS011;34462;51.368;12.364;2022-10-04T09:48:25;6.15;;;3.28;;
15258;SDS011;34462;51.368;12.364;2022-10-04T09:51:08;6.03;;;2.70;;
15258;SDS011;34462;51.368;12.364;2022-10-04T09:54:10;4.50;;;2.70;;
15258;SDS011;34462;51.368;12.364;2022-10-04T09:57:18;4.65;;;2.80;;
15258;SDS011;34462;51.368;12.364;2022-10-04T10:00:05;4.75;;;3.15;;
15258;SDS011;34462;51.368;12.364;2022-10-04T10:06:23;5.07;;;3.03;;
15258;SDS011;34462;51.368;12.364;2022-10-04T10:09:30;5.20;;;3.30;;
15258;SDS011;34462;51.368;12.364;2022-10-04T10:12:31;4.80;;;2.90;;
15258;SDS011;34462;51.368;12.364;2022-10-04T10:15:42;7.10;;;2.67;;
15258;SDS011;34462;51.368;12.364;2022-10-04T10:18:29;4.72;;;2.58;;
15258;SDS011;34462;51.368;12.364;2022-10-04T10:21:20;12.93;;;4.60;;
15258;SDS011;34462;51.368;12.364;2022-10-04T10:24:24;4.28;;;2.53;;
15258;SDS011;34462;51.368;12.364;2022-10-04T10:27:35;4.45;;;2.50;;
15258;SDS011;34462;51.368;12.364;2022-10-04T10:30:23;7.40;;;3.13;;
15258;SDS011;34462;51.368;12.364;2022-10-04T10:33:09;4.10;;;2.70;;
15258;SDS011;34462;51.368;12.364;2022-10-04T10:36:14;4.97;;;2.33;;
15258;SDS011;34462;51.368;12.364;2022-10-04T10:39:33;4.68;;;2.28;;
15258;SDS011;34462;51.368;12.364;2022-10-04T10:42:26;4.60;;;2.50;;
15258;SDS011;34462;51.368;12.364;2022-10-04T10:48:56;3.55;;;2.17;;
15258;SDS011;34462;51.368;12.364;2022-10-04T10:55:29;2.13;;;1.13;;
15258;SDS011;34462;51.368;12.364;2022-10-04T11:01:52;2.58;;;1.40;;
15258;SDS011;34462;51.368;12.364;2022-10-04T11:05:27;3.58;;;1.67;;
15258;SDS011;34462;51.368;12.364;2022-10-04T11:11:46;3.15;;;1.50;;
15258;SDS011;34462;51.368;12.364;2022-10-04T11:21:44;5.75;;;2.63;;
15258;SDS011;34462;51.368;12.364;2022-10-04T11:25:09;4.88;;;2.67;;
15258;SDS011;34462;51.368;12.364;2022-10-04T11:28:06;5.35;;;2.88;;
15258;SDS011;34462;51.368;12.364;2022-10-04T11:34:34;4.03;;;1.95;;
15258;SDS011;34462;51.368;12.364;2022-10-04T11:37:38;3.22;;;2.10;;
15258;SDS011;34462;51.368;12.364;2022-10-04T11:40:29;4.15;;;2.15;;
15258;SDS011;34462;51.368;12.364;2022-10-04T11:43:19;3.97;;;2.40;;
15258;SDS011;34462;51.368;12.364;2022-10-04T11:46:17;3.88;;;2.50;;
15258;SDS011;34462;51.368;12.364;2022-10-04T11:49:05;5.88;;;3.28;;
15258;SDS011;34462;51.368;12.364;2022-10-04T11:52:11;4.70;;;2.67;;
15258;SDS011;34462;51.368;12.364;2022-10-04T11:58:24;4.55;;;2.40;;
15258;SDS011;34462;51.368;12.364;2022-10-04T12:01:22;2.40;;;2.00;;
15258;SDS011;34462;51.368;12.364;2022-10-04T12:04:51;6.68;;;2.50;;
15258;SDS011;34462;51.368;12.364;2022-10-04T12:08:17;2.75;;;1.92;;
15258;SDS011;34462;51.368;12.364;2022-10-04T12:11:06;4.53;;;2.20;;
15258;SDS011;34462;51.368;12.364;2022-10-04T12:14:21;3.97;;;2.33;;
15258;SDS011;34462;51.368;12.364;2022-10-04T12:17:23;3.55;;;2.30;;
15258;SDS011;34462;51.368;12.364;2022-10-04T12:20:40;5.72;;;2.33;;
15258;SDS011;34462;51.368;12.364;2022-10-04T12:23:41;5.15;;;2.17;;
15258;SDS011;34462;51.368;12.364;2022-10-04T12:26:30;5.45;;;2.30;;
15258;SDS011;34462;51.368;12.364;2022-10-04T12:32:50;3.22;;;2.03;;
15258;SDS011;34462;51.368;12.364;2022-10-04T12:35:32;2.55;;;1.70;;
15258;SDS011;34462;51.368;12.364;2022-10-04T12:41:15;3.45;;;2.30;;
15258;SDS011;34462;51.368;12.364;2022-10-04T12:44:19;4.57;;;2.40;;
15258;SDS011;34462;51.368;12.364;2022-10-04T12:47:28;4.88;;;2.42;;
15258;SDS011;34462;51.368;12.364;2022-10-04T12:50:44;5.75;;;2.47;;
15258;SDS011;34462;51.368;12.364;2022-10-04T12:53:27;3.58;;;1.80;;
15258;SDS011;34462;51.368;12.364;2022-10-04T12:56:19;2.58;;;1.90;;
15258;SDS011;34462;51.368;12.364;2022-10-04T12:59:23;3.25;;;1.80;;
15258;SDS011;34462;51.368;12.364;2022-10-04T13:02:30;3.45;;;1.90;;
15258;SDS011;34462;51.368;12.364;2022-10-04T13:05:29;3.70;;;1.70;;
15258;SDS011;34462;51.368;12.364;2022-10-04T13:08:15;3.80;;;2.25;;
15258;SDS011;34462;51.368;12.364;2022-10-04T13:14:25;3.80;;;2.00;;
15258;SDS011;34462;51.368;12.364;2022-10-04T13:17:14;2.92;;;1.58;;
15258;SDS011;34462;51.368;12.364;2022-10-04T13:20:18;4.00;;;1.75;;
15258;SDS011;34462;51.368;12.364;2022-10-04T13:23:05;6.85;;;2.15;;
15258;SDS011;34462;51.368;12.364;2022-10-04T13:25:55;3.85;;;2.03;;
15258;SDS011;34462;51.368;12.364;2022-10-04T13:28:43;3.20;;;2.00;;
15258;SDS011;34462;51.368;12.364;2022-10-04T13:31:29;4.93;;;1.98;;
15258;SDS011;34462;51.368;12.364;2022-10-04T13:34:09;3.40;;;1.85;;
15258;SDS011;34462;51.368;12.364;2022-10-04T13:36:57;4.15;;;2.00;;
15258;SDS011;34462;51.368;12.364;2022-10-04T13:39:57;3.60;;;1.88;;
15258;SDS011;34462;51.368;12.364;2022-10-04T13:43:02;3.95;;;2.10;;
15258;SDS011;34462;51.368;12.364;2022-10-04T13:45:56;5.68;;;2.00;;
15258;SDS011;34462;51.368;12.364;2022-10-04T13:48:47;2.88;;;1.70;;
15258;SDS011;34462;51.368;12.364;2022-10-04T13:51:38;3.33;;;1.80;;
15258;SDS011;34462;51.368;12.364;2022-10-04T13:54:45;3.88;;;1.60;;
15258;SDS011;34462;51.368;12.364;2022-10-04T13:57:41;3.60;;;1.63;;
15258;SDS011;34462;51.368;12.364;2022-10-04T14:00:30;3.42;;;1.77;;
15258;SDS011;34462;51.368;12.364;2022-10-04T14:03:31;5.25;;;1.80;;
15258;SDS011;34462;51.368;12.364;2022-10-04T14:06:23;3.03;;;1.50;;
15258;SDS011;34462;51.368;12.364;2022-10-04T14:09:27;5.43;;;1.90;;
15258;SDS011;34462;51.368;12.364;2022-10-04T14:15:37;3.60;;;1.70;;
15258;SDS011;34462;51.368;12.364;2022-10-04T14:22:05;3.70;;;1.50;;
15258;SDS011;34462;51.368;12.364;2022-10-04T14:25:13;3.85;;;1.90;;
15258;SDS011;34462;51.368;12.364;2022-10-04T14:28:13;3.38;;;1.60;;
15258;SDS011;34462;51.368;12.364;2022-10-04T14:34:22;3.78;;;1.50;;
15258;SDS011;34462;51.368;12.364;2022-10-04T14:40:39;2.47;;;1.30;;
15258;SDS011;34462;51.368;12.364;2022-10-04T14:47:18;3.28;;;1.40;;
15258;SDS011;34462;51.368;12.364;2022-10-04T14:50:07;1.55;;;1.10;;
15258;SDS011;34462;51.368;12.364;2022-10-04T14:53:06;3.97;;;1.85;;
15258;SDS011;34462;51.368;12.364;2022-10-04T14:55:53;3.45;;;1.63;;
15258;SDS011;34462;51.368;12.364;2022-10-04T14:58:47;2.88;;;1.58;;
15258;SDS011;34462;51.368;12.364;2022-10-04T15:01:30;3.10;;;1.67;;
15258;SDS011;34462;51.368;12.364;2022-10-04T15:04:08;2.65;;;1.67;;
15258;SDS011;34462;51.368;12.364;2022-10-04T15:06:54;4.47;;;2.00;;
15258;SDS011;34462;51.368;12.364;2022-10-04T15:09:45;3.65;;;1.80;;
15258;SDS011;34462;51.368;12.364;2022-10-04T15:12:37;4.03;;;1.65;;
15258;SDS011;34462;51.368;12.364;2022-10-04T15:18:47;2.92;;;1.60;;
15258;SDS011;34462;51.368;12.364;2022-10-04T15:24:28;3.13;;;1.60;;
15258;SDS011;34462;51.368;12.364;2022-10-04T15:30:28;5.30;;;1.85;;
15258;SDS011;34462;51.368;12.364;2022-10-04T15:33:18;1.80;;;1.58;;
15258;SDS011;34462;51.368;12.364;2022-10-04T15:36:10;1.83;;;1.25;;
15258;SDS011;34462;51.368;12.364;2022-10-04T15:39:05;2.42;;;1.63;;
15258;SDS011;34462;51.368;12.364;2022-10-04T15:41:59;4.20;;;2.00;;
15258;SDS011;34462;51.368;12.364;2022-10-04T15:44:44;3.65;;;2.10;;
15258;SDS011;34462;51.368;12.364;2022-10-04T15:48:20;4.18;;;1.65;;
15258;SDS011;34462;51.368;12.364;2022-10-04T15:50:59;2.65;;;1.52;;
15258;SDS011;34462;51.368;12.364;2022-10-04T15:56:46;2.85;;;1.50;;
15258;SDS011;34462;51.368;12.364;2022-10-04T15:59:24;1.60;;;1.50;;
15258;SDS011;34462;51.368;12.364;2022-10-04T16:05:24;2.42;;;1.70;;
15258;SDS011;34462;51.368;12.364;2022-10-04T16:08:12;2.80;;;1.67;;
15258;SDS011;34462;51.368;12.364;2022-10-04T16:14:12;3.35;;;1.80;;
15258;SDS011;34462;51.368;12.364;2022-10-04T16:17:15;2.83;;;1.50;;
15258;SDS011;34462;51.368;12.364;2022-10-04T16:20:24;2.63;;;1.50;;
15258;SDS011;34462;51.368;12.364;2022-10-04T16:23:27;2.85;;;1.90;;
15258;SDS011;34462;51.368;12.364;2022-10-04T16:25:59;2.25;;;1.70;;
15258;SDS011;34462;51.368;12.364;2022-10-04T16:28:50;2.78;;;1.85;;
15258;SDS011;34462;51.368;12.364;2022-10-04T16:31:42;4.90;;;1.90;;
15258;SDS011;34462;51.368;12.364;2022-10-04T16:34:36;3.75;;;1.88;;
15258;SDS011;34462;51.368;12.364;2022-10-04T16:37:17;3.75;;;2.00;;
15258;SDS011;34462;51.368;12.364;2022-10-04T16:40:15;3.20;;;1.70;;
15258;SDS011;34462;51.368;12.364;2022-10-04T16:42:58;9.93;;;6.63;;
15258;SDS011;34462;51.368;12.364;2022-10-04T16:48:38;3.28;;;2.45;;
15258;SDS011;34462;51.368;12.364;2022-10-04T16:54:46;3.08;;;2.05;;
15258;SDS011;34462;51.368;12.364;2022-10-04T16:57:29;3.55;;;2.28;;
15258;SDS011;34462;51.368;12.364;2022-10-04T16:59:57;3.75;;;2.13;;
15258;SDS011;34462;51.368;12.364;2022-10-04T17:02:50;4.35;;;2.35;;
15258;SDS011;34462;51.368;12.364;2022-10-04T17:05:43;4.72;;;2.30;;
15258;SDS011;34462;51.368;12.364;2022-10-04T17:08:21;3.58;;;2.60;;
15258;SDS011;34462;51.368;12.364;2022-10-04T17:11:05;3.38;;;2.60;;
15258;SDS011;34462;51.368;12.364;2022-10-04T17:14:18;3.17;;;2.60;;
15258;SDS011;34462;51.368;12.364;2022-10-04T17:17:13;3.50;;;2.70;;
15258;SDS011;34462;51.368;12.364;2022-10-04T17:19:53;4.97;;;3.20;;
15258;SDS011;34462;51.368;12.364;2022-10-04T17:22:30;3.30;;;2.53;;
15258;SDS011;34462;51.368;12.364;2022-10-04T17:25:21;4.30;;;2.90;;
15258;SDS011;34462;51.368;12.364;2022-10-04T17:28:01;4.88;;;2.75;;
15258;SDS011;34462;51.368;12.364;2022-10-04T17:30:46;5.25;;;2.55;;
15258;SDS011;34462;51.368;12.364;2022-10-04T17:36:36;5.80;;;3.10;;
15258;SDS011;34462;51.368;12.364;2022-10-04T17:39:23;3.93;;;3.20;;
15258;SDS011;34462;51.368;12.364;2022-10-04T17:42:14;3.85;;;2.92;;
15258;SDS011;34462;51.368;12.364;2022-10-04T17:47:59;3.83;;;3.13;;
15258;SDS011;34462;51.368;12.364;2022-10-04T17:50:54;8.23;;;3.50;;
15258;SDS011;34462;51.368;12.364;2022-10-04T17:53:49;5.47;;;3.22;;
15258;SDS011;34462;51.368;12.364;2022-10-04T17:56:44;4.20;;;3.00;;
15258;SDS011;34462;51.368;12.364;2022-10-04T17:59:17;3.55;;;2.70;;
15258;SDS011;34462;51.368;12.364;2022-10-04T18:01:58;5.73;;;2.80;;
15258;SDS011;34462;51.368;12.364;2022-10-04T18:04:38;4.13;;;2.97;;
15258;SDS011;34462;51.368;12.364;2022-10-04T18:07:18;4.40;;;2.92;;
15258;SDS011;34462;51.368;12.364;2022-10-04T18:09:53;4.25;;;2.50;;
15258;SDS011;34462;51.368;12.364;2022-10-04T18:12:28;4.27;;;3.00;;
15258;SDS011;34462;51.368;12.364;2022-10-04T18:15:03;4.00;;;2.80;;
15258;SDS011;34462;51.368;12.364;2022-10-04T18:17:47;3.78;;;2.67;;
15258;SDS011;34462;51.368;12.364;2022-10-04T18:20:18;3.67;;;2.88;;
15258;SDS011;34462;51.368;12.364;2022-10-04T18:22:57;7.88;;;3.10;;
15258;SDS011;34462;51.368;12.364;2022-10-04T18:25:29;5.90;;;3.15;;
15258;SDS011;34462;51.368;12.364;2022-10-04T18:28:00;3.57;;;3.27;;
15258;SDS011;34462;51.368;12.364;2022-10-04T18:30:53;5.72;;;3.53;;
15258;SDS011;34462;51.368;12.364;2022-10-04T18:33:29;3.33;;;3.03;;